createdAt,value
2022-11-14T00:01:22.655Z,9.50
2022-11-14T00:03:50.474Z,9.50
2022-11-14T00:06:20.896Z,9.60
2022-11-14T00:08:48.046Z,9.60
2022-11-14T00:11:15.457Z,9.60
2022-11-14T00:13:42.555Z,9.60
2022-11-14T00:16:10.068Z,9.60
2022-11-14T00:18:39.580Z,9.60
2022-11-14T00:21:06.922Z,9.60
2022-11-14T00:23:36.580Z,9.60
2022-11-14T00:26:03.606Z,9.60
2022-11-14T00:28:31.218Z,9.60
2022-11-14T00:30:58.589Z,9.50
2022-11-14T00:33:25.898Z,9.60
2022-11-14T00:35:56.829Z,9.60
2022-11-14T00:38:24.598Z,9.50
2022-11-14T00:40:51.644Z,9.50
2022-11-14T00:43:19.110Z,9.50
2022-11-14T00:45:47.553Z,9.50
2022-11-14T00:48:17.294Z,9.50
2022-11-14T00:50:44.684Z,9.50
2022-11-14T00:53:14.561Z,9.40
2022-11-14T00:55:42.630Z,9.40
2022-11-14T00:58:12.446Z,9.40
2022-11-14T01:00:39.618Z,9.40
2022-11-14T01:03:06.923Z,9.40
2022-11-14T01:05:33.968Z,9.50
2022-11-14T01:08:01.094Z,9.40
2022-11-14T01:10:28.384Z,9.40
2022-11-14T01:12:55.340Z,9.30
2022-11-14T01:15:22.727Z,9.40
2022-11-14T01:17:49.805Z,9.30
2022-11-14T01:20:17.575Z,9.30
2022-11-14T01:22:44.753Z,9.30
2022-11-14T01:25:12.201Z,9.30
2022-11-14T01:27:39.285Z,9.30
2022-11-14T01:30:07.397Z,9.20
2022-11-14T01:32:36.580Z,9.20
2022-11-14T01:35:03.746Z,9.10
2022-11-14T01:37:31.164Z,9.10
2022-11-14T01:39:58.149Z,9.10
2022-11-14T01:42:30.155Z,9.10
2022-11-14T01:44:59.711Z,9.20
2022-11-14T01:47:33.100Z,9.20
2022-11-14T01:50:04.642Z,9.20
2022-11-14T01:52:36.133Z,9.10
2022-11-14T01:55:06.789Z,9.10
2022-11-14T01:57:40.420Z,9.00
2022-11-14T02:00:11.604Z,9.00
2022-11-14T02:02:39.174Z,9.00
2022-11-14T02:05:08.949Z,9.00
2022-11-14T02:07:40.088Z,8.90
2022-11-14T02:10:14.983Z,8.90
2022-11-14T02:12:42.765Z,8.90
2022-11-14T02:15:13.655Z,9.00
2022-11-14T02:17:41.292Z,9.00
2022-11-14T02:20:11.840Z,9.00
2022-11-14T02:22:42.377Z,8.90
2022-11-14T02:25:15.014Z,8.80
2022-11-14T02:27:42.252Z,9.00
2022-11-14T02:30:16.273Z,9.00
2022-11-14T02:33:09.973Z,9.00
2022-11-14T02:35:31.054Z,9.00
2022-11-14T02:37:58.280Z,9.00
2022-11-14T02:40:25.255Z,9.10
2022-11-14T02:42:55.041Z,9.00
2022-11-14T02:45:22.468Z,9.00
2022-11-14T02:47:49.756Z,8.90
2022-11-14T02:50:17.715Z,8.90
2022-11-14T02:52:45.118Z,8.90
2022-11-14T02:55:12.070Z,8.80
2022-11-14T02:57:39.369Z,8.80
2022-11-14T03:02:59.073Z,8.70
2022-11-14T03:05:26.516Z,8.80
2022-11-14T03:07:54.318Z,8.70
2022-11-14T03:10:22.897Z,8.70
2022-11-14T03:12:57.188Z,8.70
2022-11-14T03:15:24.905Z,8.80
2022-11-14T03:17:57.221Z,8.80
2022-11-14T03:20:24.177Z,8.80
2022-11-14T03:22:51.605Z,8.80
2022-11-14T03:25:18.671Z,8.80
2022-11-14T03:27:48.058Z,8.70
2022-11-14T03:30:15.474Z,8.60
2022-11-14T03:32:45.040Z,8.70
2022-11-14T03:35:12.622Z,8.70
2022-11-14T03:37:39.613Z,8.60
2022-11-14T03:40:07.488Z,8.60
2022-11-14T03:42:37.510Z,8.50
2022-11-14T03:45:04.905Z,8.50
2022-11-14T03:47:32.485Z,8.50
2022-11-14T03:49:59.489Z,8.40
2022-11-14T03:52:26.999Z,8.30
2022-11-14T03:54:54.191Z,8.30
2022-11-14T03:57:21.467Z,8.20
2022-11-14T03:59:48.697Z,8.20
2022-11-14T04:02:16.226Z,8.10
2022-11-14T04:04:43.216Z,8.00
2022-11-14T04:07:12.501Z,8.20
2022-11-14T04:09:39.947Z,8.20
2022-11-14T04:12:10.159Z,8.20
2022-11-14T04:14:42.015Z,8.30
2022-11-14T04:17:09.229Z,8.40
2022-11-14T04:19:41.059Z,8.50
2022-11-14T04:22:08.241Z,8.60
2022-11-14T04:24:37.806Z,8.60
2022-11-14T04:27:07.189Z,8.70
2022-11-14T04:29:34.606Z,8.70
2022-11-14T04:32:01.670Z,8.80
2022-11-14T04:34:31.519Z,8.70
2022-11-14T04:36:58.841Z,8.70
2022-11-14T04:39:26.196Z,8.70
2022-11-14T04:41:53.304Z,8.60
2022-11-14T04:44:23.438Z,8.60
2022-11-14T04:46:50.409Z,8.60
2022-11-14T04:49:17.689Z,8.70
2022-11-14T04:51:45.139Z,8.70
2022-11-14T04:54:14.857Z,8.70
2022-11-14T04:56:41.975Z,8.80
2022-11-14T04:59:09.248Z,8.80
2022-11-14T05:01:38.840Z,8.80
2022-11-14T05:04:06.061Z,8.70
2022-11-14T05:06:33.442Z,8.70
2022-11-14T05:09:00.485Z,8.70
2022-11-14T05:11:30.287Z,8.60
2022-11-14T05:14:00.134Z,8.60
2022-11-14T05:16:27.377Z,8.50
2022-11-14T05:18:54.621Z,8.50
2022-11-14T05:21:22.243Z,8.50
2022-11-14T05:23:51.574Z,8.50
2022-11-14T05:26:21.414Z,8.50
2022-11-14T05:28:51.181Z,8.40
2022-11-14T05:31:18.417Z,8.40
2022-11-14T05:33:48.270Z,8.40
2022-11-14T05:36:17.755Z,8.30
2022-11-14T05:38:47.774Z,8.30
2022-11-14T05:41:17.159Z,8.30
2022-11-14T05:43:44.947Z,8.30
2022-11-14T05:46:14.112Z,8.30
2022-11-14T05:48:42.008Z,8.20
2022-11-14T05:51:12.781Z,8.10
2022-11-14T05:53:40.461Z,8.10
2022-11-14T05:56:11.394Z,8.00
2022-11-14T05:58:41.652Z,8.00
2022-11-14T06:01:13.276Z,7.90
2022-11-14T06:03:43.315Z,7.90
2022-11-14T06:06:13.844Z,7.90
2022-11-14T06:08:41.792Z,7.90
2022-11-14T06:11:17.850Z,7.80
2022-11-14T06:13:45.768Z,7.70
2022-11-14T06:16:18.196Z,7.80
2022-11-14T06:18:46.242Z,7.80
2022-11-14T06:21:18.905Z,7.90
2022-11-14T06:23:47.482Z,8.00
2022-11-14T06:26:24.766Z,8.30
2022-11-14T06:28:55.266Z,8.90
2022-11-14T06:31:25.416Z,9.60
2022-11-14T06:33:53.026Z,10.40
2022-11-14T06:36:22.693Z,11.00
2022-11-14T06:38:49.740Z,11.70
2022-11-14T06:41:21.944Z,12.50
2022-11-14T06:43:51.478Z,13.50
2022-11-14T06:46:21.684Z,14.40
2022-11-14T06:48:50.283Z,15.40
2022-11-14T06:51:18.647Z,16.20
2022-11-14T06:53:45.952Z,17.20
2022-11-14T06:56:18.063Z,18.30
2022-11-14T06:58:48.689Z,19.30
2022-11-14T07:01:24.764Z,20.40
2022-11-14T07:03:54.704Z,21.40
2022-11-14T07:06:26.762Z,22.60
2022-11-14T07:08:55.057Z,23.40
2022-11-14T07:11:29.228Z,24.50
2022-11-14T07:14:01.270Z,25.40
2022-11-14T07:16:29.883Z,25.60
2022-11-14T07:19:00.460Z,26.10
2022-11-14T07:21:30.026Z,26.90
2022-11-14T07:23:59.856Z,27.70
2022-11-14T07:26:27.363Z,28.20
2022-11-14T07:28:59.173Z,29.40
2022-11-14T07:31:29.518Z,30.20
2022-11-14T07:33:56.639Z,30.80
2022-11-14T07:36:24.268Z,31.10
2022-11-14T07:38:51.432Z,31.60
2022-11-14T07:41:18.953Z,32.20
2022-11-14T07:43:46.246Z,32.50
2022-11-14T07:46:16.118Z,33.00
2022-11-14T07:48:43.954Z,33.30
2022-11-14T07:51:19.212Z,34.00
2022-11-14T07:53:46.503Z,34.90
2022-11-14T07:56:13.978Z,35.70
2022-11-14T07:58:43.585Z,36.30
2022-11-14T08:01:14.505Z,36.60
2022-11-14T08:03:45.606Z,36.50
2022-11-14T08:06:15.971Z,36.70
2022-11-14T08:08:43.330Z,37.00
2022-11-14T08:11:10.922Z,37.00
2022-11-14T08:13:38.002Z,36.90
2022-11-14T08:16:12.343Z,37.00
2022-11-14T08:18:41.283Z,37.30
2022-11-14T08:21:08.837Z,37.60
2022-11-14T08:23:38.463Z,37.70
2022-11-14T08:26:06.056Z,37.90
2022-11-14T08:28:33.427Z,37.70
2022-11-14T08:31:04.300Z,38.10
2022-11-14T08:33:31.972Z,38.30
2022-11-14T08:36:03.725Z,37.70
2022-11-14T08:38:32.636Z,38.40
2022-11-14T08:41:02.038Z,38.80
2022-11-14T08:43:30.284Z,39.70
2022-11-14T08:46:03.481Z,40.10
2022-11-14T08:48:33.835Z,40.80
2022-11-14T08:51:06.784Z,41.20
2022-11-14T08:53:34.652Z,41.10
2022-11-14T08:56:04.646Z,41.10
2022-11-14T08:58:32.912Z,41.80
2022-11-14T09:01:07.316Z,42.60
2022-11-14T09:03:37.397Z,43.30
2022-11-14T09:06:07.942Z,43.90
2022-11-14T09:08:34.969Z,44.10
2022-11-14T09:11:05.990Z,44.40
2022-11-14T09:13:34.542Z,44.00
2022-11-14T09:16:01.913Z,43.30
2022-11-14T09:18:30.720Z,43.00
2022-11-14T09:21:06.627Z,40.50
2022-11-14T09:23:36.685Z,40.20
2022-11-14T09:26:05.466Z,39.20
2022-11-14T09:28:33.175Z,39.60
2022-11-14T09:31:05.601Z,39.80
2022-11-14T09:33:33.609Z,39.40
2022-11-14T09:36:06.253Z,38.80
2022-11-14T09:38:38.721Z,37.30
2022-11-14T09:41:08.853Z,37.00
2022-11-14T09:43:45.015Z,36.40
2022-11-14T09:46:20.867Z,35.80
2022-11-14T09:48:49.179Z,35.70
2022-11-14T09:51:25.568Z,35.50
2022-11-14T09:54:18.602Z,35.30
2022-11-14T09:56:45.719Z,36.50
2022-11-14T09:59:14.170Z,37.70
2022-11-14T10:02:14.320Z,38.00
2022-11-14T10:04:50.825Z,38.80
2022-11-14T10:07:56.179Z,39.70
2022-11-14T10:10:38.696Z,40.60
2022-11-14T10:13:12.382Z,40.90
2022-11-14T10:15:58.351Z,41.30
2022-11-14T10:18:34.937Z,41.90
2022-11-14T10:21:28.800Z,42.30
2022-11-14T10:24:33.635Z,42.60
2022-11-14T10:27:05.381Z,43.20
2022-11-14T10:29:38.151Z,42.60
2022-11-14T10:32:26.980Z,42.30
2022-11-14T10:35:01.363Z,41.90
2022-11-14T10:37:40.109Z,42.40
2022-11-14T10:40:24.407Z,42.30
2022-11-14T10:42:58.389Z,41.90
2022-11-14T10:46:02.921Z,41.50
2022-11-14T10:48:35.364Z,41.00
2022-11-14T10:51:21.853Z,40.10
2022-11-14T10:54:04.788Z,37.70
2022-11-14T10:56:31.790Z,36.10
2022-11-14T10:58:59.619Z,35.70
2022-11-14T11:01:32.667Z,35.30
2022-11-14T11:04:15.319Z,34.40
2022-11-14T11:06:44.808Z,33.50
2022-11-14T11:09:21.697Z,31.00
2022-11-14T11:12:00.728Z,27.30
2022-11-14T11:14:29.041Z,25.10
2022-11-14T11:17:11.436Z,23.50
2022-11-14T11:19:45.406Z,21.60
2022-11-14T11:22:37.369Z,20.50
2022-11-14T11:25:31.481Z,19.60
2022-11-14T11:28:21.772Z,18.90
2022-11-14T11:30:58.616Z,18.20
2022-11-14T11:33:30.720Z,17.70
2022-11-14T11:36:06.079Z,17.10
2022-11-14T11:38:34.268Z,16.60
2022-11-14T11:41:15.429Z,16.10
2022-11-14T11:44:10.777Z,15.90
2022-11-14T11:46:58.295Z,15.60
2022-11-14T11:49:48.651Z,15.40
2022-11-14T11:52:41.023Z,15.00
2022-11-14T11:55:32.812Z,14.80
2022-11-14T11:58:11.640Z,14.70
2022-11-14T12:00:41.601Z,14.40
2022-11-14T12:03:20.354Z,14.20
2022-11-14T12:05:53.867Z,14.10
2022-11-14T12:08:43.904Z,14.00
2022-11-14T12:11:17.733Z,13.80
2022-11-14T12:14:06.876Z,13.40
2022-11-14T12:17:09.950Z,13.30
2022-11-14T12:19:40.313Z,13.40
2022-11-14T12:22:11.282Z,13.30
2022-11-14T12:25:16.052Z,13.20
2022-11-14T12:27:58.350Z,13.10
2022-11-14T12:30:31.690Z,13.10
2022-11-14T12:33:22.330Z,13.20
2022-11-14T12:35:53.665Z,13.00
2022-11-14T12:38:26.553Z,12.80
2022-11-14T12:40:56.929Z,12.70
2022-11-14T12:43:42.133Z,12.60
2022-11-14T12:46:11.703Z,12.50
2022-11-14T12:48:46.180Z,12.40
2022-11-14T12:51:25.916Z,12.40
2022-11-14T12:53:58.422Z,12.40
2022-11-14T12:56:25.701Z,12.40
2022-11-14T12:59:20.615Z,12.40
2022-11-14T13:01:59.221Z,12.40
2022-11-14T13:04:54.379Z,12.40
2022-11-14T13:07:33.860Z,12.40
2022-11-14T13:10:10.504Z,12.40
2022-11-14T13:12:41.385Z,12.40
2022-11-14T13:15:56.497Z,12.40
2022-11-14T13:18:27.688Z,12.40
2022-11-14T13:21:29.363Z,12.40
2022-11-14T13:23:59.452Z,12.20
2022-11-14T13:26:29.473Z,12.10
2022-11-14T13:28:57.309Z,12.10
2022-11-14T13:31:38.171Z,12.20
2022-11-14T13:34:33.029Z,12.20
2022-11-14T13:37:39.115Z,12.30
2022-11-14T13:40:21.355Z,12.30
2022-11-14T13:43:03.433Z,12.40
2022-11-14T13:45:37.645Z,12.40
2022-11-14T13:48:47.747Z,12.30
2022-11-14T13:51:41.748Z,12.30
2022-11-14T13:54:17.893Z,12.30
2022-11-14T13:56:45.791Z,12.30
2022-11-14T13:59:34.346Z,12.30
2022-11-14T14:02:10.233Z,12.20
2022-11-14T14:05:01.259Z,12.20
2022-11-14T14:07:31.591Z,12.20
2022-11-14T14:10:23.302Z,12.10
2022-11-14T14:13:22.147Z,12.10
2022-11-14T14:15:56.576Z,12.10
2022-11-14T14:18:41.896Z,11.90
2022-11-14T14:21:19.608Z,11.90
2022-11-14T14:24:07.116Z,11.80
2022-11-14T14:26:52.672Z,11.70
2022-11-14T14:29:47.591Z,11.60
2022-11-14T14:32:20.122Z,11.60
2022-11-14T14:34:47.443Z,11.60
2022-11-14T14:37:20.783Z,11.60
2022-11-14T14:40:01.947Z,11.70
2022-11-14T14:42:41.659Z,11.60
2022-11-14T14:45:18.990Z,11.60
2022-11-14T14:47:49.660Z,11.60
2022-11-14T14:50:28.143Z,11.60
2022-11-14T14:52:58.117Z,11.60
2022-11-14T14:55:28.279Z,11.60
2022-11-14T14:57:55.484Z,11.60
2022-11-14T15:00:25.266Z,11.50
2022-11-14T15:02:58.715Z,11.50
2022-11-14T15:05:27.487Z,11.40
2022-11-14T15:08:02.131Z,11.30
2022-11-14T15:10:31.437Z,11.20
2022-11-14T15:12:59.351Z,11.20
2022-11-14T15:15:28.066Z,11.10
2022-11-14T15:17:59.751Z,11.10
2022-11-14T15:20:29.779Z,11.00
2022-11-14T15:23:19.437Z,11.00
2022-11-14T15:26:06.531Z,10.90
2022-11-14T15:28:34.272Z,10.80
2022-11-14T15:31:03.967Z,10.80
2022-11-14T15:33:35.559Z,10.80
2022-11-14T15:36:12.664Z,10.70
2022-11-14T15:38:44.522Z,10.60
2022-11-14T15:41:23.327Z,10.60
2022-11-14T15:43:52.953Z,10.60
2022-11-14T15:46:50.173Z,10.60
2022-11-14T15:49:25.765Z,10.60
2022-11-14T15:51:59.569Z,10.60
2022-11-14T15:54:34.921Z,10.50
2022-11-14T15:57:25.394Z,10.50
2022-11-14T15:59:53.046Z,10.50
2022-11-14T16:02:33.432Z,10.50
2022-11-14T16:05:04.102Z,10.50
2022-11-14T16:07:32.020Z,10.50
2022-11-14T16:10:01.553Z,10.50
2022-11-14T16:12:29.607Z,10.50
2022-11-14T16:14:56.758Z,10.50
2022-11-14T16:17:24.249Z,10.50
2022-11-14T16:19:54.648Z,10.40
2022-11-14T16:22:22.729Z,10.40
2022-11-14T16:24:52.123Z,10.40
2022-11-14T16:27:20.106Z,10.40
2022-11-14T16:29:47.659Z,10.30
2022-11-14T16:32:14.998Z,10.40
2022-11-14T16:34:45.528Z,10.30
2022-11-14T16:37:14.504Z,10.30
2022-11-14T16:39:41.575Z,10.30
2022-11-14T16:42:12.850Z,10.30
2022-11-14T16:44:42.902Z,10.30
2022-11-14T16:47:15.018Z,10.30
2022-11-14T16:49:42.275Z,10.30
2022-11-14T16:52:10.741Z,10.30
2022-11-14T16:54:38.284Z,10.30
2022-11-14T16:57:08.076Z,10.30
2022-11-14T16:59:37.400Z,10.30
2022-11-14T17:02:05.237Z,10.30
2022-11-14T17:04:34.666Z,10.30
2022-11-14T17:07:02.259Z,10.30
2022-11-14T17:09:29.500Z,10.30
2022-11-14T17:11:57.041Z,10.20
2022-11-14T17:14:26.265Z,10.30
2022-11-14T17:27:34.147Z,10.30
2022-11-14T17:30:01.510Z,10.30
2022-11-14T17:32:30.101Z,10.20
2022-11-14T17:34:57.537Z,10.20
2022-11-14T17:37:29.076Z,10.20
2022-11-14T17:39:56.334Z,10.20
2022-11-14T17:42:23.393Z,10.20
2022-11-14T17:44:50.898Z,10.20
2022-11-14T17:47:18.032Z,10.20
2022-11-14T17:49:47.692Z,10.20
2022-11-14T17:52:14.850Z,10.20
2022-11-14T17:54:42.107Z,10.20
2022-11-14T17:57:11.854Z,10.20
2022-11-14T17:59:39.399Z,10.30
2022-11-14T18:02:06.953Z,10.20
2022-11-14T18:04:34.822Z,10.20
2022-11-14T18:07:04.758Z,10.20
2022-11-14T18:09:34.256Z,10.20
2022-11-14T18:12:01.454Z,10.20
2022-11-14T18:14:28.974Z,10.20
2022-11-14T18:17:12.175Z,10.20
2022-11-14T18:19:42.889Z,10.20
2022-11-14T18:22:09.841Z,10.20
2022-11-14T18:24:37.121Z,10.20
2022-11-14T18:27:06.669Z,10.20
2022-11-14T18:29:33.949Z,10.10
2022-11-14T18:32:03.681Z,10.10
2022-11-14T18:34:31.194Z,10.10
2022-11-14T18:37:00.730Z,10.10
2022-11-14T18:39:27.986Z,10.10
2022-11-14T18:41:58.198Z,10.10
2022-11-14T18:44:25.553Z,10.00
2022-11-14T18:46:52.579Z,10.10
2022-11-14T18:49:20.256Z,10.00
2022-11-14T18:51:47.319Z,10.00
2022-11-14T18:54:16.304Z,10.00
2022-11-14T18:56:48.448Z,9.90
2022-11-14T18:59:16.330Z,9.90
2022-11-14T19:01:43.775Z,9.90
2022-11-14T19:04:12.431Z,9.80
2022-11-14T19:06:43.061Z,9.80
2022-11-14T19:09:12.208Z,9.80
2022-11-14T19:11:42.345Z,9.80
2022-11-14T19:14:12.012Z,9.80
2022-11-14T19:16:41.744Z,9.70
2022-11-14T19:19:12.098Z,9.70
2022-11-14T19:21:39.833Z,9.70
2022-11-14T19:24:07.761Z,9.70
2022-11-14T19:26:35.345Z,9.70
2022-11-14T19:29:05.220Z,9.70
2022-11-14T19:31:33.048Z,9.70
2022-11-14T19:34:01.152Z,9.60
2022-11-14T19:36:57.718Z,9.60
2022-11-14T19:39:18.357Z,9.60
2022-11-14T19:41:45.468Z,9.50
2022-11-14T19:44:12.855Z,9.50
2022-11-14T19:46:47.167Z,9.50
2022-11-14T19:49:17.267Z,9.40
2022-11-14T19:51:44.653Z,9.50
2022-11-14T19:54:12.051Z,9.40
2022-11-14T19:56:39.156Z,9.40
2022-11-14T19:59:11.206Z,9.40
2022-11-14T20:01:41.636Z,9.40
2022-11-14T20:04:12.298Z,9.50
2022-11-14T20:06:39.743Z,9.50
2022-11-14T20:09:09.225Z,9.50
2022-11-14T20:11:38.831Z,9.50
2022-11-14T20:14:12.085Z,9.50
2022-11-14T20:16:39.273Z,9.50
2022-11-14T20:19:06.785Z,9.50
2022-11-14T20:21:36.665Z,9.50
2022-11-14T20:24:04.330Z,9.50
2022-11-14T20:26:31.498Z,9.40
2022-11-14T20:28:59.504Z,9.40
2022-11-14T20:31:30.590Z,9.30
2022-11-14T20:33:58.097Z,9.30
2022-11-14T20:36:31.992Z,9.30
2022-11-14T20:39:09.232Z,9.30
2022-11-14T20:41:36.396Z,9.20
2022-11-14T20:44:03.852Z,9.20
2022-11-14T20:46:31.935Z,9.20
2022-11-14T20:48:59.387Z,9.20
2022-11-14T20:51:26.397Z,9.10
2022-11-14T20:53:55.408Z,9.10
2022-11-14T20:56:23.204Z,9.10
2022-11-14T20:58:51.150Z,9.10
2022-11-14T21:01:18.695Z,9.00
2022-11-14T21:03:47.067Z,9.00
2022-11-14T21:06:15.938Z,9.00
2022-11-14T21:08:43.799Z,9.00
2022-11-14T21:11:17.557Z,9.00
2022-11-14T21:13:45.218Z,8.90
2022-11-14T21:16:18.062Z,8.90
2022-11-14T21:18:48.481Z,8.90
2022-11-14T21:21:18.192Z,8.90
2022-11-14T21:23:47.907Z,8.80
2022-11-14T21:26:21.377Z,8.80
2022-11-14T21:28:50.051Z,8.80
2022-11-14T21:31:19.217Z,8.80
2022-11-14T21:33:48.343Z,8.80
2022-11-14T21:39:06.969Z,8.70
2022-11-14T21:41:36.507Z,8.70
2022-11-14T21:44:06.408Z,8.70
2022-11-14T21:46:35.783Z,8.70
2022-11-14T21:49:03.274Z,8.70
2022-11-14T21:51:32.547Z,8.80
2022-11-14T21:54:00.111Z,8.80
2022-11-14T21:56:32.318Z,8.80
2022-11-14T21:59:01.698Z,8.90
2022-11-14T22:01:31.532Z,8.90
2022-11-14T22:04:08.927Z,8.90
2022-11-14T22:06:36.168Z,8.90
2022-11-14T22:09:06.856Z,8.80
2022-11-14T22:11:37.160Z,8.80
2022-11-14T22:14:04.786Z,8.80
2022-11-14T22:16:32.124Z,8.80
2022-11-14T22:19:05.381Z,8.70
2022-11-14T22:21:35.709Z,8.70
2022-11-14T22:24:02.795Z,8.70
2022-11-14T22:26:30.230Z,8.70
2022-11-14T22:28:57.644Z,8.70
2022-11-14T22:31:25.126Z,8.70
2022-11-14T22:33:53.489Z,8.70
2022-11-14T22:36:26.317Z,8.70
2022-11-14T22:38:58.951Z,8.70
2022-11-14T22:41:32.331Z,8.60
2022-11-14T22:44:00.457Z,8.60
2022-11-14T22:46:32.574Z,8.60
2022-11-14T22:48:59.645Z,8.70
2022-11-14T22:51:30.118Z,8.70
2022-11-14T22:53:58.421Z,8.70
2022-11-14T22:56:28.556Z,8.70
2022-11-14T22:58:59.285Z,8.70
2022-11-14T23:01:29.765Z,8.80
2022-11-14T23:04:05.185Z,8.70
2022-11-14T23:06:34.953Z,8.90
2022-11-14T23:09:02.746Z,8.80
2022-11-14T23:11:31.927Z,8.80
2022-11-14T23:14:00.809Z,8.90
2022-11-14T23:16:30.624Z,8.90
2022-11-14T23:19:00.093Z,8.80
2022-11-14T23:21:33.341Z,8.80
2022-11-14T23:24:05.674Z,8.70
2022-11-14T23:26:34.357Z,8.80
2022-11-14T23:29:03.983Z,8.70
2022-11-14T23:31:31.363Z,8.70
2022-11-14T23:33:58.716Z,8.70
2022-11-14T23:36:26.072Z,8.70
2022-11-14T23:38:53.449Z,8.70
2022-11-14T23:41:23.785Z,8.70
2022-11-14T23:43:50.803Z,8.70
2022-11-14T23:46:18.120Z,8.70
2022-11-14T23:48:47.516Z,8.70
2022-11-14T23:51:14.804Z,8.70
2022-11-14T23:53:42.190Z,8.70
2022-11-14T23:56:12.793Z,8.70
2022-11-14T23:58:42.784Z,8.70
